createdAt,value
2019-03-15T00:00:28.469Z,20.00
2019-03-15T00:03:13.069Z,15.77
2019-03-15T00:05:57.590Z,18.50
2019-03-15T00:08:42.234Z,20.83
2019-03-15T00:11:26.727Z,17.37
2019-03-15T00:14:11.366Z,19.63
2019-03-15T00:16:56.023Z,19.13
2019-03-15T00:19:40.764Z,18.70
2019-03-15T00:22:25.815Z,17.67
2019-03-15T00:25:11.266Z,19.03
2019-03-15T00:27:56.375Z,17.73
2019-03-15T00:30:40.759Z,15.77
2019-03-15T00:33:25.274Z,14.70
2019-03-15T00:36:09.860Z,14.03
2019-03-15T00:38:54.266Z,14.30
2019-03-15T00:41:38.904Z,20.77
2019-03-15T00:44:23.960Z,17.93
2019-03-15T00:47:08.668Z,18.10
2019-03-15T00:49:53.370Z,17.60
2019-03-15T00:52:37.879Z,22.70
2019-03-15T00:55:22.385Z,18.80
2019-03-15T00:58:06.904Z,21.33
2019-03-15T01:00:51.539Z,19.30
2019-03-15T01:03:36.138Z,20.37
2019-03-15T01:06:20.754Z,19.37
2019-03-15T01:09:05.463Z,18.67
2019-03-15T01:11:50.214Z,16.87
2019-03-15T01:14:34.828Z,21.73
2019-03-15T01:17:19.435Z,17.53
2019-03-15T01:20:06.337Z,17.63
2019-03-15T01:22:51.038Z,17.37
2019-03-15T01:25:35.730Z,15.00
2019-03-15T01:28:20.271Z,16.77
2019-03-15T01:31:04.858Z,13.40
2019-03-15T01:33:49.463Z,18.63
2019-03-15T01:36:34.334Z,16.53
2019-03-15T01:39:18.905Z,16.97
2019-03-15T01:42:03.448Z,21.47
2019-03-15T01:44:48.662Z,24.47
2019-03-15T01:47:33.072Z,17.43
2019-03-15T01:50:17.729Z,17.60
2019-03-15T01:53:02.245Z,19.70
2019-03-15T01:55:46.815Z,14.40
2019-03-15T01:58:31.337Z,16.23
2019-03-15T02:01:15.983Z,23.47
2019-03-15T02:04:00.832Z,13.73
2019-03-15T02:06:45.297Z,16.40
2019-03-15T02:09:30.162Z,13.30
2019-03-15T02:12:14.912Z,18.70
2019-03-15T02:14:59.347Z,15.43
2019-03-15T02:17:43.958Z,17.60
2019-03-15T02:20:28.765Z,15.63
2019-03-15T02:23:13.582Z,20.93
2019-03-15T02:25:58.212Z,14.47
2019-03-15T02:28:42.789Z,14.17
2019-03-15T02:31:27.500Z,19.30
2019-03-15T02:34:11.933Z,16.07
2019-03-15T02:36:56.554Z,15.50
2019-03-15T02:39:41.274Z,18.43
2019-03-15T02:42:26.379Z,16.37
2019-03-15T02:45:10.995Z,14.10
2019-03-15T02:47:55.518Z,19.73
2019-03-15T02:50:40.055Z,18.53
2019-03-15T02:53:24.596Z,11.67
2019-03-15T02:56:09.264Z,17.90
2019-03-15T02:58:54.358Z,16.40
2019-03-15T03:01:39.280Z,14.23
2019-03-15T03:04:23.812Z,17.10
2019-03-15T03:07:08.580Z,16.97
2019-03-15T03:09:53.601Z,20.77
2019-03-15T03:12:38.148Z,16.63
2019-03-15T03:15:22.696Z,17.07
2019-03-15T03:18:07.413Z,17.53
2019-03-15T03:20:52.261Z,17.33
2019-03-15T03:23:36.959Z,16.90
2019-03-15T03:26:21.899Z,17.07
2019-03-15T03:29:06.380Z,17.90
2019-03-15T03:31:51.235Z,17.20
2019-03-15T03:34:36.097Z,17.57
2019-03-15T03:37:20.739Z,16.20
2019-03-15T03:40:06.351Z,18.57
2019-03-15T03:42:51.084Z,19.37
2019-03-15T03:45:36.028Z,17.10
2019-03-15T03:48:21.024Z,15.90
2019-03-15T03:51:05.557Z,19.43
2019-03-15T03:53:50.109Z,16.73
2019-03-15T03:56:34.737Z,20.47
2019-03-15T03:59:19.348Z,11.17
2019-03-15T04:02:04.278Z,20.10
2019-03-15T04:04:49.064Z,14.13
2019-03-15T04:07:34.256Z,12.23
2019-03-15T04:10:19.058Z,14.97
2019-03-15T04:13:03.633Z,16.17
2019-03-15T04:15:48.179Z,14.77
2019-03-15T04:18:32.843Z,19.17
2019-03-15T04:21:17.929Z,16.93
2019-03-15T04:24:02.559Z,17.90
2019-03-15T04:26:47.470Z,15.27
2019-03-15T04:29:31.982Z,19.50
2019-03-15T04:32:16.679Z,17.73
2019-03-15T04:35:01.119Z,15.10
2019-03-15T04:37:45.619Z,18.23
2019-03-15T04:40:30.391Z,17.03
2019-03-15T04:43:15.320Z,20.40
2019-03-15T04:45:59.889Z,12.83
2019-03-15T04:48:44.874Z,16.67
2019-03-15T04:51:29.327Z,20.30
2019-03-15T04:54:13.853Z,21.67
2019-03-15T04:56:58.389Z,21.37
2019-03-15T04:59:43.032Z,16.13
2019-03-15T05:02:28.303Z,19.27
2019-03-15T05:05:12.680Z,18.60
2019-03-15T05:07:57.394Z,25.37
2019-03-15T05:10:42.054Z,18.40
2019-03-15T05:13:26.678Z,17.70
2019-03-15T05:16:11.330Z,18.50
2019-03-15T05:18:55.703Z,18.00
2019-03-15T05:21:40.429Z,14.90
2019-03-15T05:24:25.191Z,14.80
2019-03-15T05:27:09.803Z,18.67
2019-03-15T05:29:54.293Z,17.73
2019-03-15T05:32:38.997Z,21.23
2019-03-15T05:35:23.963Z,15.37
2019-03-15T05:38:09.238Z,19.10
2019-03-15T05:40:53.828Z,16.37
2019-03-15T05:43:38.380Z,22.40
2019-03-15T05:46:23.120Z,17.40
2019-03-15T05:49:07.967Z,20.20
2019-03-15T05:51:52.572Z,17.87
2019-03-15T05:54:37.650Z,19.40
2019-03-15T05:57:22.099Z,16.37
2019-03-15T06:00:09.789Z,15.77
2019-03-15T06:02:54.388Z,17.93
2019-03-15T06:05:38.955Z,15.00
2019-03-15T06:08:23.732Z,18.27
2019-03-15T06:11:08.215Z,19.20
2019-03-15T06:13:52.759Z,14.53
2019-03-15T06:16:37.277Z,15.57
2019-03-15T06:19:21.801Z,22.27
2019-03-15T06:22:06.465Z,14.70
2019-03-15T06:24:50.910Z,19.50
2019-03-15T06:27:35.602Z,15.47
2019-03-15T06:30:20.253Z,16.23
2019-03-15T06:33:05.524Z,19.37
2019-03-15T06:35:50.044Z,15.67
2019-03-15T06:38:34.799Z,18.40
2019-03-15T06:41:19.632Z,19.73
2019-03-15T06:44:04.520Z,23.47
2019-03-15T06:46:48.919Z,17.53
2019-03-15T06:49:33.295Z,14.40
2019-03-15T06:52:18.012Z,26.10
2019-03-15T06:55:05.439Z,20.37
2019-03-15T06:57:50.838Z,15.47
2019-03-15T07:00:35.444Z,17.43
2019-03-15T07:03:19.939Z,19.60
2019-03-15T07:06:04.489Z,22.10
2019-03-15T07:08:49.448Z,17.43
2019-03-15T07:11:34.027Z,16.93
2019-03-15T07:14:18.488Z,18.20
2019-03-15T07:17:03.210Z,19.40
2019-03-15T07:19:48.009Z,17.03
2019-03-15T07:22:32.735Z,17.27
2019-03-15T07:25:17.286Z,15.93
2019-03-15T07:28:01.997Z,20.50
2019-03-15T07:30:46.484Z,21.70
2019-03-15T07:33:31.250Z,22.47
2019-03-15T07:36:16.810Z,15.47
2019-03-15T07:39:02.078Z,15.40
2019-03-15T07:41:46.604Z,15.37
2019-03-15T07:44:31.173Z,18.87
2019-03-15T07:47:15.632Z,18.63
2019-03-15T07:50:00.387Z,16.43
2019-03-15T07:52:45.383Z,19.37
2019-03-15T07:55:29.979Z,17.53
2019-03-15T07:58:15.031Z,16.47
2019-03-15T08:00:59.728Z,19.60
2019-03-15T08:03:44.788Z,20.30
2019-03-15T08:06:34.855Z,21.40
2019-03-15T08:09:15.743Z,16.37
2019-03-15T08:12:00.421Z,19.77
2019-03-15T08:14:44.762Z,19.27
2019-03-15T08:17:29.468Z,22.67
2019-03-15T08:20:14.063Z,16.03
2019-03-15T08:22:58.730Z,18.20
2019-03-15T08:25:43.249Z,18.00
2019-03-15T08:28:28.134Z,19.93
2019-03-15T08:31:13.076Z,20.63
2019-03-15T08:33:58.008Z,21.60
2019-03-15T08:36:42.659Z,19.40
2019-03-15T08:39:27.365Z,20.23
2019-03-15T08:42:12.105Z,16.60
2019-03-15T08:44:56.481Z,16.10
2019-03-15T08:47:41.384Z,17.83
2019-03-15T08:50:26.283Z,23.17
2019-03-15T08:53:11.259Z,15.77
2019-03-15T08:55:55.987Z,16.60
2019-03-15T08:58:40.696Z,16.07
2019-03-15T09:01:25.724Z,18.60
2019-03-15T09:04:10.434Z,15.83
2019-03-15T09:06:55.475Z,15.60
2019-03-15T09:09:40.367Z,21.50
2019-03-15T09:12:24.713Z,17.07
2019-03-15T09:15:10.553Z,16.60
2019-03-15T09:17:55.599Z,18.63
2019-03-15T09:20:40.758Z,22.83
2019-03-15T09:23:25.101Z,15.50
2019-03-15T09:26:10.599Z,13.87
2019-03-15T09:28:55.281Z,16.27
2019-03-15T09:31:47.524Z,12.87
2019-03-15T09:34:26.281Z,14.07
2019-03-15T09:37:10.933Z,15.00
2019-03-15T09:39:55.471Z,15.30
2019-03-15T09:42:40.043Z,14.60
2019-03-15T09:45:24.799Z,13.27
2019-03-15T09:48:10.164Z,14.83
2019-03-15T09:50:54.925Z,20.57
2019-03-15T09:53:39.367Z,29.03
2019-03-15T09:56:24.272Z,19.47
2019-03-15T09:59:08.987Z,17.93
2019-03-15T10:01:53.583Z,11.07
2019-03-15T10:04:38.031Z,6.90
2019-03-15T10:07:22.690Z,7.83
2019-03-15T10:10:13.986Z,6.07
2019-03-15T10:13:05.923Z,7.30
2019-03-15T10:15:44.827Z,6.37
2019-03-15T10:18:29.546Z,6.47
2019-03-15T10:21:14.450Z,4.67
2019-03-15T10:23:59.290Z,9.17
2019-03-15T10:26:43.898Z,6.70
2019-03-15T10:29:28.483Z,7.80
2019-03-15T10:32:12.822Z,9.03
2019-03-15T10:34:57.521Z,6.23
2019-03-15T10:37:42.091Z,8.63
2019-03-15T10:40:27.112Z,6.03
2019-03-15T10:43:11.601Z,3.03
2019-03-15T10:45:56.313Z,3.40
2019-03-15T10:48:40.913Z,2.13
2019-03-15T10:51:25.544Z,2.23
2019-03-15T10:54:10.199Z,2.50
2019-03-15T10:56:54.679Z,4.37
2019-03-15T10:59:39.329Z,3.20
2019-03-15T11:02:24.297Z,3.53
2019-03-15T11:05:09.309Z,3.57
2019-03-15T11:07:54.006Z,3.50
2019-03-15T11:10:38.973Z,4.50
2019-03-15T11:13:23.638Z,5.13
2019-03-15T11:16:08.722Z,6.03
2019-03-15T11:18:53.542Z,4.73
2019-03-15T11:21:38.268Z,9.27
2019-03-15T11:24:22.982Z,5.47
2019-03-15T11:27:07.386Z,5.47
2019-03-15T11:29:51.954Z,6.27
2019-03-15T11:32:36.572Z,5.80
2019-03-15T11:35:21.704Z,4.90
2019-03-15T11:38:06.706Z,4.40
2019-03-15T11:40:51.759Z,4.80
2019-03-15T11:43:36.359Z,4.83
2019-03-15T11:46:21.358Z,4.90
2019-03-15T11:49:05.974Z,5.07
2019-03-15T11:51:50.677Z,4.90
2019-03-15T11:54:35.474Z,5.07
2019-03-15T11:57:20.397Z,7.13
2019-03-15T12:00:11.709Z,5.40
2019-03-15T12:02:56.552Z,6.27
2019-03-15T12:05:41.481Z,6.40
2019-03-15T12:08:26.007Z,7.03
2019-03-15T12:11:10.523Z,7.27
2019-03-15T12:13:55.497Z,6.50
2019-03-15T12:16:40.241Z,8.37
2019-03-15T12:19:24.704Z,6.63
2019-03-15T12:22:09.639Z,6.80
2019-03-15T12:24:54.362Z,7.67
2019-03-15T12:27:39.085Z,8.80
2019-03-15T12:30:23.466Z,9.10
2019-03-15T12:33:08.170Z,7.57
2019-03-15T12:35:52.699Z,7.40
2019-03-15T12:38:37.398Z,7.83
2019-03-15T12:41:24.718Z,9.67
2019-03-15T12:44:10.585Z,8.73
2019-03-15T12:46:55.538Z,7.03
2019-03-15T12:49:40.060Z,8.47
2019-03-15T12:52:24.691Z,7.10
2019-03-15T12:55:13.016Z,8.10
2019-03-15T12:57:57.878Z,9.90
2019-03-15T13:00:42.381Z,12.30
2019-03-15T13:03:26.840Z,10.30
2019-03-15T13:06:11.680Z,10.67
2019-03-15T13:08:56.684Z,9.40
2019-03-15T13:11:41.577Z,11.93
2019-03-15T13:14:26.505Z,14.90
2019-03-15T13:17:11.203Z,10.37
2019-03-15T13:19:55.758Z,13.43
2019-03-15T13:22:40.979Z,16.33
2019-03-15T13:25:25.537Z,16.97
2019-03-15T13:28:10.218Z,21.87
2019-03-15T13:30:54.923Z,21.13
2019-03-15T13:33:39.432Z,30.73
2019-03-15T13:36:24.070Z,30.47
2019-03-15T13:39:08.575Z,29.97
2019-03-15T13:41:53.141Z,25.80
2019-03-15T13:44:37.841Z,30.33
2019-03-15T13:47:22.672Z,25.30
2019-03-15T13:50:14.532Z,22.33
2019-03-15T13:52:59.466Z,28.27
2019-03-15T13:55:43.997Z,27.53
2019-03-15T13:58:29.141Z,31.97
2019-03-15T14:01:14.273Z,28.23
2019-03-15T14:03:59.276Z,29.50
2019-03-15T14:06:43.967Z,32.67
2019-03-15T14:09:28.728Z,30.40
2019-03-15T14:12:13.722Z,33.20
2019-03-15T14:14:58.078Z,31.00
2019-03-15T14:17:42.767Z,34.53
2019-03-15T14:20:27.382Z,37.73
2019-03-15T14:23:12.463Z,41.30
2019-03-15T14:25:57.512Z,35.87
2019-03-15T14:28:42.079Z,33.70
2019-03-15T14:31:27.379Z,39.13
2019-03-15T14:34:12.422Z,34.53
2019-03-15T14:36:57.119Z,40.47
2019-03-15T14:39:42.055Z,37.57
2019-03-15T14:42:27.510Z,36.90
2019-03-15T14:45:13.120Z,34.47
2019-03-15T14:47:57.613Z,31.27
2019-03-15T14:50:42.297Z,32.33
2019-03-15T14:53:26.828Z,30.73
2019-03-15T14:56:11.823Z,32.97
2019-03-15T14:58:56.641Z,33.87
2019-03-15T15:01:41.136Z,32.73
2019-03-15T15:04:25.755Z,40.80
2019-03-15T15:07:10.788Z,31.10
2019-03-15T15:09:55.785Z,34.37
2019-03-15T15:12:40.493Z,30.47
2019-03-15T15:15:25.466Z,37.97
2019-03-15T15:18:10.004Z,43.47
2019-03-15T15:20:55.033Z,42.27
2019-03-15T15:23:40.065Z,41.07
2019-03-15T15:26:24.617Z,33.93
2019-03-15T15:29:09.261Z,15.93
2019-03-15T15:31:53.807Z,8.70
2019-03-15T15:34:38.291Z,9.87
2019-03-15T15:37:22.996Z,15.83
2019-03-15T15:40:12.099Z,9.37
2019-03-15T15:42:57.037Z,9.33
2019-03-15T15:45:41.658Z,8.83
2019-03-15T15:48:26.567Z,13.80
2019-03-15T15:51:11.525Z,9.33
2019-03-15T15:53:56.213Z,12.13
2019-03-15T15:56:40.779Z,7.40
2019-03-15T15:59:25.798Z,13.23
2019-03-15T16:02:10.797Z,12.93
2019-03-15T16:04:55.592Z,11.17
2019-03-15T16:07:40.582Z,11.57
2019-03-15T16:10:25.822Z,14.47
2019-03-15T16:13:17.233Z,13.87
2019-03-15T16:15:57.368Z,14.93
2019-03-15T16:18:42.131Z,11.20
2019-03-15T16:21:27.013Z,14.57
2019-03-15T16:24:11.778Z,15.83
2019-03-15T16:26:56.739Z,11.87
2019-03-15T16:29:41.385Z,10.77
2019-03-15T16:32:26.024Z,14.97
2019-03-15T16:35:11.687Z,14.57
2019-03-15T16:37:56.143Z,17.43
2019-03-15T16:40:41.431Z,15.83
2019-03-15T16:43:26.607Z,15.00
2019-03-15T16:46:11.419Z,12.13
2019-03-15T16:48:56.600Z,16.93
2019-03-15T16:51:41.608Z,12.17
2019-03-15T16:54:26.767Z,14.63
2019-03-15T16:57:11.970Z,18.90
2019-03-15T16:59:56.887Z,18.43
2019-03-15T17:02:42.178Z,18.60
2019-03-15T17:05:27.323Z,14.17
2019-03-15T17:08:12.107Z,16.23
2019-03-15T17:10:57.077Z,21.70
2019-03-15T17:13:41.682Z,13.77
2019-03-15T17:16:26.450Z,15.53
2019-03-15T17:19:11.606Z,13.73
2019-03-15T17:21:56.811Z,14.33
2019-03-15T17:24:41.842Z,11.40
2019-03-15T17:27:27.059Z,14.30
2019-03-15T17:30:15.665Z,15.23
2019-03-15T17:33:00.275Z,14.73
2019-03-15T17:35:45.187Z,13.00
2019-03-15T17:38:29.904Z,10.90
2019-03-15T17:41:14.657Z,14.33
2019-03-15T17:43:59.447Z,14.33
2019-03-15T17:46:44.390Z,17.97
2019-03-15T17:49:28.913Z,13.57
2019-03-15T17:52:14.206Z,10.53
2019-03-15T17:54:59.194Z,16.10
2019-03-15T17:57:45.905Z,15.03
2019-03-15T18:00:45.318Z,14.87
2019-03-15T18:03:29.760Z,12.20
2019-03-15T18:06:17.794Z,13.17
2019-03-15T18:09:03.711Z,18.90
2019-03-15T18:11:49.617Z,16.00
2019-03-15T18:14:34.545Z,15.03
2019-03-15T18:17:19.706Z,13.00
2019-03-15T18:20:06.575Z,11.13
2019-03-15T18:22:51.331Z,17.30
2019-03-15T18:25:36.478Z,13.70
2019-03-15T18:28:21.415Z,12.07
2019-03-15T18:31:06.429Z,12.57
2019-03-15T18:33:51.322Z,10.90
2019-03-15T18:36:35.922Z,12.77
2019-03-15T18:39:20.763Z,13.23
2019-03-15T18:42:05.689Z,16.33
2019-03-15T18:44:50.786Z,11.97
2019-03-15T18:47:35.718Z,11.33
2019-03-15T18:50:24.637Z,10.97
2019-03-15T18:53:09.644Z,7.37
2019-03-15T18:55:54.785Z,9.57
2019-03-15T18:58:42.835Z,10.37
2019-03-15T19:01:27.586Z,10.07
2019-03-15T19:04:11.941Z,9.60
2019-03-15T19:06:56.722Z,8.53
2019-03-15T19:09:41.207Z,10.43
2019-03-15T19:12:25.691Z,8.50
2019-03-15T19:15:12.331Z,10.13
2019-03-15T19:17:57.042Z,15.03
2019-03-15T19:20:42.473Z,9.27
2019-03-15T19:23:27.308Z,9.17
2019-03-15T19:26:12.070Z,9.10
2019-03-15T19:28:57.110Z,9.40
2019-03-15T19:31:42.149Z,8.30
2019-03-15T19:34:26.705Z,6.97
2019-03-15T19:37:11.993Z,9.40
2019-03-15T19:39:57.032Z,10.03
2019-03-15T19:42:45.160Z,9.57
2019-03-15T19:45:29.299Z,11.73
2019-03-15T19:48:14.421Z,8.50
2019-03-15T19:50:59.491Z,7.87
2019-03-15T19:53:44.487Z,11.17
2019-03-15T19:56:29.657Z,9.67
2019-03-15T19:59:14.679Z,7.90
2019-03-15T20:01:59.434Z,8.93
2019-03-15T20:04:44.521Z,9.27
2019-03-15T20:07:29.425Z,9.03
2019-03-15T20:10:16.769Z,8.70
2019-03-15T20:13:02.861Z,10.33
2019-03-15T20:15:50.702Z,11.13
2019-03-15T20:18:34.366Z,8.10
2019-03-15T20:21:19.206Z,13.17
2019-03-15T20:24:03.737Z,10.73
2019-03-15T20:26:48.487Z,8.53
2019-03-15T20:29:33.418Z,8.73
2019-03-15T20:32:18.062Z,10.13
2019-03-15T20:35:03.665Z,12.13
2019-03-15T20:37:48.671Z,8.53
2019-03-15T20:40:33.801Z,9.33
2019-03-15T20:43:18.886Z,7.23
2019-03-15T20:46:04.129Z,9.93
2019-03-15T20:48:49.194Z,8.83
2019-03-15T20:51:34.264Z,6.57
2019-03-15T20:54:19.322Z,6.83
2019-03-15T20:57:04.135Z,9.53
2019-03-15T20:59:49.255Z,7.40
2019-03-15T21:02:34.558Z,7.40
2019-03-15T21:05:19.322Z,10.97
2019-03-15T21:08:04.255Z,6.20
2019-03-15T21:10:51.493Z,8.23
2019-03-15T21:13:36.564Z,11.50
2019-03-15T21:16:21.650Z,7.47
2019-03-15T21:19:06.302Z,8.80
2019-03-15T21:21:51.351Z,6.27
2019-03-15T21:24:36.661Z,11.00
2019-03-15T21:27:21.558Z,7.20
2019-03-15T21:30:09.862Z,7.77
2019-03-15T21:32:54.879Z,8.00
2019-03-15T21:35:39.987Z,8.90
2019-03-15T21:38:24.861Z,10.07
2019-03-15T21:41:09.596Z,7.80
2019-03-15T21:43:54.527Z,6.20
2019-03-15T21:46:39.677Z,6.47
2019-03-15T21:49:24.401Z,8.57
2019-03-15T21:52:09.325Z,9.80
2019-03-15T21:54:54.367Z,6.87
2019-03-15T21:57:39.156Z,10.17
2019-03-15T22:00:24.228Z,8.03
2019-03-15T22:03:09.255Z,8.00
2019-03-15T22:05:53.780Z,8.53
2019-03-15T22:08:38.471Z,7.57
2019-03-15T22:11:23.520Z,11.03
2019-03-15T22:14:08.392Z,7.43
2019-03-15T22:16:52.888Z,7.30
2019-03-15T22:19:37.602Z,8.17
2019-03-15T22:22:22.340Z,8.83
2019-03-15T22:25:07.937Z,8.67
2019-03-15T22:27:52.629Z,10.43
2019-03-15T22:30:37.255Z,8.87
2019-03-15T22:33:21.898Z,11.77
2019-03-15T22:36:06.869Z,9.67
2019-03-15T22:38:51.810Z,10.30
2019-03-15T22:41:36.303Z,9.53
2019-03-15T22:44:20.952Z,8.77
2019-03-15T22:47:05.806Z,9.77
2019-03-15T22:49:50.518Z,11.37
2019-03-15T22:52:35.319Z,11.13
2019-03-15T22:55:20.261Z,12.17
2019-03-15T22:58:05.208Z,11.97
2019-03-15T23:00:50.298Z,8.90
2019-03-15T23:03:34.850Z,10.73
2019-03-15T23:06:19.594Z,12.00
2019-03-15T23:09:05.484Z,9.00
2019-03-15T23:11:50.665Z,10.73
2019-03-15T23:14:35.489Z,13.57
2019-03-15T23:17:20.150Z,10.13
2019-03-15T23:20:07.419Z,12.03
2019-03-15T23:22:54.877Z,12.83
2019-03-15T23:25:38.942Z,12.70
2019-03-15T23:28:23.906Z,12.63
2019-03-15T23:31:09.065Z,11.20
2019-03-15T23:33:53.784Z,11.33
2019-03-15T23:36:38.884Z,10.57
2019-03-15T23:39:23.375Z,11.27
2019-03-15T23:42:07.941Z,10.87
2019-03-15T23:44:52.395Z,10.80
2019-03-15T23:47:37.088Z,12.90
2019-03-15T23:50:21.869Z,12.33
2019-03-15T23:53:06.427Z,11.90
2019-03-15T23:55:50.889Z,9.47
2019-03-15T23:58:35.489Z,10.20
